sensor_id;sensor_type;location;lat;lon;timestamp;temperature;humidity
20483;DHT22;10400;53.198;6.592;2023-09-18T00:01:05;17.60;99.90
20483;DHT22;10400;53.198;6.592;2023-09-18T00:03:32;17.50;99.90
20483;DHT22;10400;53.198;6.592;2023-09-18T00:05:58;17.50;99.90
20483;DHT22;10400;53.198;6.592;2023-09-18T00:08:24;17.50;99.90
20483;DHT22;10400;53.198;6.592;2023-09-18T00:10:53;17.50;99.90
20483;DHT22;10400;53.198;6.592;2023-09-18T00:13:19;17.40;99.90
20483;DHT22;10400;53.198;6.592;2023-09-18T00:15:46;17.40;99.90
20483;DHT22;10400;53.198;6.592;2023-09-18T00:18:16;17.40;99.90
20483;DHT22;10400;53.198;6.592;2023-09-18T00:20:42;17.30;99.90
20483;DHT22;10400;53.198;6.592;2023-09-18T00:23:08;17.30;99.90
20483;DHT22;10400;53.198;6.592;2023-09-18T00:25:34;17.30;99.90
20483;DHT22;10400;53.198;6.592;2023-09-18T00:28:00;17.30;99.90
20483;DHT22;10400;53.198;6.592;2023-09-18T00:30:25;17.30;99.90
20483;DHT22;10400;53.198;6.592;2023-09-18T00:32:51;17.30;99.90
20483;DHT22;10400;53.198;6.592;2023-09-18T00:35:17;17.30;99.90
20483;DHT22;10400;53.198;6.592;2023-09-18T00:37:42;17.30;99.90
20483;DHT22;10400;53.198;6.592;2023-09-18T00:40:09;17.30;99.90
20483;DHT22;10400;53.198;6.592;2023-09-18T00:42:34;17.30;99.90
20483;DHT22;10400;53.198;6.592;2023-09-18T00:45:00;17.30;99.90
20483;DHT22;10400;53.198;6.592;2023-09-18T00:47:26;17.30;99.90
20483;DHT22;10400;53.198;6.592;2023-09-18T00:49:52;17.30;99.90
20483;DHT22;10400;53.198;6.592;2023-09-18T00:52:20;17.30;99.90
20483;DHT22;10400;53.198;6.592;2023-09-18T00:54:47;17.30;99.90
20483;DHT22;10400;53.198;6.592;2023-09-18T00:57:13;17.30;99.90
20483;DHT22;10400;53.198;6.592;2023-09-18T00:59:39;17.30;99.90
20483;DHT22;10400;53.198;6.592;2023-09-18T01:02:05;17.30;99.90
20483;DHT22;10400;53.198;6.592;2023-09-18T01:04:33;17.30;99.90
20483;DHT22;10400;53.198;6.592;2023-09-18T01:07:02;17.30;99.90
20483;DHT22;10400;53.198;6.592;2023-09-18T01:09:31;17.30;99.90
20483;DHT22;10400;53.198;6.592;2023-09-18T01:14:59;17.40;99.90
20483;DHT22;10400;53.198;6.592;2023-09-18T01:17:30;17.40;99.90
20483;DHT22;10400;53.198;6.592;2023-09-18T01:19:56;17.30;99.90
20483;DHT22;10400;53.198;6.592;2023-09-18T01:22:21;17.30;99.90
20483;DHT22;10400;53.198;6.592;2023-09-18T01:24:48;17.30;99.90
20483;DHT22;10400;53.198;6.592;2023-09-18T01:27:18;17.30;99.90
20483;DHT22;10400;53.198;6.592;2023-09-18T01:29:44;17.30;99.90
20483;DHT22;10400;53.198;6.592;2023-09-18T01:32:10;17.30;99.90
20483;DHT22;10400;53.198;6.592;2023-09-18T01:34:39;17.30;99.90
20483;DHT22;10400;53.198;6.592;2023-09-18T01:37:07;17.40;99.90
20483;DHT22;10400;53.198;6.592;2023-09-18T01:39:35;17.30;99.90
20483;DHT22;10400;53.198;6.592;2023-09-18T01:42:03;17.30;99.90
20483;DHT22;10400;53.198;6.592;2023-09-18T01:44:30;17.40;99.90
20483;DHT22;10400;53.198;6.592;2023-09-18T01:46:59;17.30;99.90
20483;DHT22;10400;53.198;6.592;2023-09-18T01:49:37;17.30;99.90
20483;DHT22;10400;53.198;6.592;2023-09-18T01:52:04;17.30;99.90
20483;DHT22;10400;53.198;6.592;2023-09-18T01:54:30;17.40;99.90
20483;DHT22;10400;53.198;6.592;2023-09-18T01:56:56;17.30;99.90
20483;DHT22;10400;53.198;6.592;2023-09-18T01:59:22;17.30;99.90
20483;DHT22;10400;53.198;6.592;2023-09-18T02:01:50;17.30;99.90
20483;DHT22;10400;53.198;6.592;2023-09-18T02:04:16;17.30;99.90
20483;DHT22;10400;53.198;6.592;2023-09-18T02:06:42;17.30;99.90
20483;DHT22;10400;53.198;6.592;2023-09-18T02:09:08;17.40;99.90
20483;DHT22;10400;53.198;6.592;2023-09-18T02:11:38;17.40;99.90
20483;DHT22;10400;53.198;6.592;2023-09-18T02:14:04;17.40;99.90
20483;DHT22;10400;53.198;6.592;2023-09-18T02:16:33;17.40;99.90
20483;DHT22;10400;53.198;6.592;2023-09-18T02:18:58;17.40;99.90
20483;DHT22;10400;53.198;6.592;2023-09-18T02:21:24;17.40;99.90
20483;DHT22;10400;53.198;6.592;2023-09-18T02:23:51;17.40;99.90
20483;DHT22;10400;53.198;6.592;2023-09-18T02:26:19;17.40;99.90
20483;DHT22;10400;53.198;6.592;2023-09-18T02:28:45;17.40;99.90
20483;DHT22;10400;53.198;6.592;2023-09-18T02:31:11;17.40;99.90
20483;DHT22;10400;53.198;6.592;2023-09-18T02:33:37;17.40;99.90
20483;DHT22;10400;53.198;6.592;2023-09-18T02:36:03;17.30;99.90
20483;DHT22;10400;53.198;6.592;2023-09-18T02:38:29;17.30;99.90
20483;DHT22;10400;53.198;6.592;2023-09-18T02:40:55;17.30;99.90
20483;DHT22;10400;53.198;6.592;2023-09-18T02:43:22;17.30;99.90
20483;DHT22;10400;53.198;6.592;2023-09-18T02:45:49;17.30;99.90
20483;DHT22;10400;53.198;6.592;2023-09-18T02:48:14;17.30;99.90
20483;DHT22;10400;53.198;6.592;2023-09-18T02:50:40;17.30;99.90
20483;DHT22;10400;53.198;6.592;2023-09-18T02:53:07;17.30;99.90
20483;DHT22;10400;53.198;6.592;2023-09-18T02:55:34;17.30;99.90
20483;DHT22;10400;53.198;6.592;2023-09-18T02:58:00;17.40;99.90
20483;DHT22;10400;53.198;6.592;2023-09-18T03:00:25;17.40;99.90
20483;DHT22;10400;53.198;6.592;2023-09-18T03:02:51;17.30;99.90
20483;DHT22;10400;53.198;6.592;2023-09-18T03:05:16;17.40;99.90
20483;DHT22;10400;53.198;6.592;2023-09-18T03:07:42;17.40;99.90
20483;DHT22;10400;53.198;6.592;2023-09-18T03:10:10;17.30;99.90
20483;DHT22;10400;53.198;6.592;2023-09-18T03:12:39;17.30;99.90
20483;DHT22;10400;53.198;6.592;2023-09-18T03:15:05;17.30;99.90
20483;DHT22;10400;53.198;6.592;2023-09-18T03:17:31;17.20;99.90
20483;DHT22;10400;53.198;6.592;2023-09-18T03:19:57;17.20;99.90
20483;DHT22;10400;53.198;6.592;2023-09-18T03:22:23;17.20;99.90
20483;DHT22;10400;53.198;6.592;2023-09-18T03:24:48;17.30;99.90
20483;DHT22;10400;53.198;6.592;2023-09-18T03:27:14;17.30;99.90
20483;DHT22;10400;53.198;6.592;2023-09-18T03:29:40;17.30;99.90
20483;DHT22;10400;53.198;6.592;2023-09-18T03:32:06;17.20;99.90
20483;DHT22;10400;53.198;6.592;2023-09-18T03:34:31;17.20;99.90
20483;DHT22;10400;53.198;6.592;2023-09-18T03:36:57;17.30;99.90
20483;DHT22;10400;53.198;6.592;2023-09-18T03:39:22;17.30;99.90
20483;DHT22;10400;53.198;6.592;2023-09-18T03:41:48;17.20;99.90
20483;DHT22;10400;53.198;6.592;2023-09-18T03:44:14;17.30;99.90
20483;DHT22;10400;53.198;6.592;2023-09-18T03:46:40;17.30;99.90
20483;DHT22;10400;53.198;6.592;2023-09-18T03:49:05;17.30;99.90
20483;DHT22;10400;53.198;6.592;2023-09-18T03:51:32;17.30;99.90
20483;DHT22;10400;53.198;6.592;2023-09-18T03:53:57;17.30;99.90
20483;DHT22;10400;53.198;6.592;2023-09-18T03:56:23;17.20;99.90
20483;DHT22;10400;53.198;6.592;2023-09-18T03:58:48;17.30;99.90
20483;DHT22;10400;53.198;6.592;2023-09-18T04:01:17;17.30;99.90
20483;DHT22;10400;53.198;6.592;2023-09-18T04:03:42;17.40;99.90
20483;DHT22;10400;53.198;6.592;2023-09-18T04:06:08;17.40;99.90
20483;DHT22;10400;53.198;6.592;2023-09-18T04:08:34;17.40;99.90
20483;DHT22;10400;53.198;6.592;2023-09-18T04:10:59;17.50;99.90
20483;DHT22;10400;53.198;6.592;2023-09-18T04:13:25;17.50;99.90
20483;DHT22;10400;53.198;6.592;2023-09-18T04:15:51;17.50;99.90
20483;DHT22;10400;53.198;6.592;2023-09-18T04:18:24;17.50;99.90
20483;DHT22;10400;53.198;6.592;2023-09-18T04:20:50;17.50;99.90
20483;DHT22;10400;53.198;6.592;2023-09-18T04:23:27;17.50;99.90
20483;DHT22;10400;53.198;6.592;2023-09-18T04:25:54;17.50;99.90
20483;DHT22;10400;53.198;6.592;2023-09-18T04:28:21;17.50;99.90
20483;DHT22;10400;53.198;6.592;2023-09-18T04:30:48;17.50;99.90
20483;DHT22;10400;53.198;6.592;2023-09-18T04:33:14;17.60;99.90
20483;DHT22;10400;53.198;6.592;2023-09-18T04:35:40;17.60;99.90
20483;DHT22;10400;53.198;6.592;2023-09-18T04:38:07;17.60;99.90
20483;DHT22;10400;53.198;6.592;2023-09-18T04:40:34;17.60;99.90
20483;DHT22;10400;53.198;6.592;2023-09-18T04:43:00;17.50;99.90
20483;DHT22;10400;53.198;6.592;2023-09-18T04:45:26;17.60;99.90
20483;DHT22;10400;53.198;6.592;2023-09-18T04:47:53;17.60;99.90
20483;DHT22;10400;53.198;6.592;2023-09-18T04:50:18;17.60;99.90
20483;DHT22;10400;53.198;6.592;2023-09-18T04:52:44;17.60;99.90
20483;DHT22;10400;53.198;6.592;2023-09-18T04:55:10;17.70;99.90
20483;DHT22;10400;53.198;6.592;2023-09-18T04:57:37;17.70;99.90
20483;DHT22;10400;53.198;6.592;2023-09-18T05:00:03;17.60;99.90
20483;DHT22;10400;53.198;6.592;2023-09-18T05:02:33;17.70;99.90
20483;DHT22;10400;53.198;6.592;2023-09-18T05:05:00;17.80;99.90
20483;DHT22;10400;53.198;6.592;2023-09-18T05:07:26;17.80;99.90
20483;DHT22;10400;53.198;6.592;2023-09-18T05:09:52;17.80;99.90
20483;DHT22;10400;53.198;6.592;2023-09-18T05:12:18;17.80;99.90
20483;DHT22;10400;53.198;6.592;2023-09-18T05:14:43;17.90;99.90
20483;DHT22;10400;53.198;6.592;2023-09-18T05:17:15;17.90;99.90
20483;DHT22;10400;53.198;6.592;2023-09-18T05:19:41;17.90;99.90
20483;DHT22;10400;53.198;6.592;2023-09-18T05:22:11;17.90;99.90
20483;DHT22;10400;53.198;6.592;2023-09-18T05:24:40;17.90;99.90
20483;DHT22;10400;53.198;6.592;2023-09-18T05:27:05;18.00;99.90
20483;DHT22;10400;53.198;6.592;2023-09-18T05:29:34;18.00;99.90
20483;DHT22;10400;53.198;6.592;2023-09-18T05:32:03;18.00;99.90
20483;DHT22;10400;53.198;6.592;2023-09-18T05:34:29;18.00;99.90
20483;DHT22;10400;53.198;6.592;2023-09-18T05:36:55;18.10;99.90
20483;DHT22;10400;53.198;6.592;2023-09-18T05:39:20;18.10;99.90
20483;DHT22;10400;53.198;6.592;2023-09-18T05:41:46;18.10;99.90
20483;DHT22;10400;53.198;6.592;2023-09-18T05:44:12;18.10;99.90
20483;DHT22;10400;53.198;6.592;2023-09-18T05:46:37;18.10;99.90
20483;DHT22;10400;53.198;6.592;2023-09-18T05:49:03;18.10;99.90
20483;DHT22;10400;53.198;6.592;2023-09-18T05:51:30;18.20;99.90
20483;DHT22;10400;53.198;6.592;2023-09-18T05:53:56;18.20;99.90
20483;DHT22;10400;53.198;6.592;2023-09-18T05:56:22;18.30;99.90
20483;DHT22;10400;53.198;6.592;2023-09-18T05:58:49;18.30;99.90
20483;DHT22;10400;53.198;6.592;2023-09-18T06:01:15;18.30;99.90
20483;DHT22;10400;53.198;6.592;2023-09-18T06:03:43;18.40;99.90
20483;DHT22;10400;53.198;6.592;2023-09-18T06:06:09;18.40;99.90
20483;DHT22;10400;53.198;6.592;2023-09-18T06:08:34;18.40;99.90
20483;DHT22;10400;53.198;6.592;2023-09-18T06:11:00;18.40;99.90
20483;DHT22;10400;53.198;6.592;2023-09-18T06:13:27;18.40;99.90
20483;DHT22;10400;53.198;6.592;2023-09-18T06:15:53;18.40;99.90
20483;DHT22;10400;53.198;6.592;2023-09-18T06:18:21;18.40;99.90
20483;DHT22;10400;53.198;6.592;2023-09-18T06:20:47;18.40;99.90
20483;DHT22;10400;53.198;6.592;2023-09-18T06:23:13;18.50;99.90
20483;DHT22;10400;53.198;6.592;2023-09-18T06:25:39;18.50;99.90
20483;DHT22;10400;53.198;6.592;2023-09-18T06:28:05;18.50;99.90
20483;DHT22;10400;53.198;6.592;2023-09-18T06:30:32;18.50;99.90
20483;DHT22;10400;53.198;6.592;2023-09-18T06:33:00;18.50;99.90
20483;DHT22;10400;53.198;6.592;2023-09-18T06:35:26;18.50;99.90
20483;DHT22;10400;53.198;6.592;2023-09-18T06:37:52;18.50;99.90
20483;DHT22;10400;53.198;6.592;2023-09-18T06:40:20;18.50;99.90
20483;DHT22;10400;53.198;6.592;2023-09-18T06:42:46;18.60;99.90
20483;DHT22;10400;53.198;6.592;2023-09-18T06:45:11;18.60;99.90
20483;DHT22;10400;53.198;6.592;2023-09-18T06:47:38;18.70;99.90
20483;DHT22;10400;53.198;6.592;2023-09-18T06:50:06;18.70;99.90
20483;DHT22;10400;53.198;6.592;2023-09-18T06:52:32;18.80;99.90
20483;DHT22;10400;53.198;6.592;2023-09-18T06:54:58;18.70;99.90
20483;DHT22;10400;53.198;6.592;2023-09-18T06:57:24;18.70;99.90
20483;DHT22;10400;53.198;6.592;2023-09-18T06:59:49;18.70;99.90
20483;DHT22;10400;53.198;6.592;2023-09-18T07:02:16;18.80;99.90
20483;DHT22;10400;53.198;6.592;2023-09-18T07:04:42;18.80;99.90
20483;DHT22;10400;53.198;6.592;2023-09-18T07:07:14;18.80;99.90
20483;DHT22;10400;53.198;6.592;2023-09-18T07:09:43;18.90;99.90
20483;DHT22;10400;53.198;6.592;2023-09-18T07:12:09;18.90;99.90
20483;DHT22;10400;53.198;6.592;2023-09-18T07:14:35;18.90;99.90
20483;DHT22;10400;53.198;6.592;2023-09-18T07:17:01;18.90;99.90
20483;DHT22;10400;53.198;6.592;2023-09-18T07:19:27;18.90;99.90
20483;DHT22;10400;53.198;6.592;2023-09-18T07:21:53;18.90;99.90
20483;DHT22;10400;53.198;6.592;2023-09-18T07:24:19;19.00;99.90
20483;DHT22;10400;53.198;6.592;2023-09-18T07:26:46;19.10;99.90
20483;DHT22;10400;53.198;6.592;2023-09-18T07:29:14;19.10;99.90
20483;DHT22;10400;53.198;6.592;2023-09-18T07:31:41;19.00;99.90
20483;DHT22;10400;53.198;6.592;2023-09-18T07:34:07;18.90;99.90
20483;DHT22;10400;53.198;6.592;2023-09-18T07:36:32;18.90;99.90
20483;DHT22;10400;53.198;6.592;2023-09-18T07:38:58;19.00;99.90
20483;DHT22;10400;53.198;6.592;2023-09-18T07:41:24;18.90;99.90
20483;DHT22;10400;53.198;6.592;2023-09-18T07:43:50;18.90;99.90
20483;DHT22;10400;53.198;6.592;2023-09-18T07:46:16;18.90;99.90
20483;DHT22;10400;53.198;6.592;2023-09-18T07:48:42;18.90;99.90
20483;DHT22;10400;53.198;6.592;2023-09-18T07:51:11;18.80;99.90
20483;DHT22;10400;53.198;6.592;2023-09-18T07:53:36;18.80;99.90
20483;DHT22;10400;53.198;6.592;2023-09-18T07:56:03;18.90;99.90
20483;DHT22;10400;53.198;6.592;2023-09-18T07:58:31;18.80;99.90
20483;DHT22;10400;53.198;6.592;2023-09-18T08:00:56;18.80;99.90
20483;DHT22;10400;53.198;6.592;2023-09-18T08:03:23;18.80;99.90
20483;DHT22;10400;53.198;6.592;2023-09-18T08:05:51;18.70;99.90
20483;DHT22;10400;53.198;6.592;2023-09-18T08:08:18;18.80;99.90
20483;DHT22;10400;53.198;6.592;2023-09-18T08:10:46;18.70;99.90
20483;DHT22;10400;53.198;6.592;2023-09-18T08:13:12;18.90;99.90
20483;DHT22;10400;53.198;6.592;2023-09-18T08:15:38;18.90;99.90
20483;DHT22;10400;53.198;6.592;2023-09-18T08:18:04;18.90;99.90
20483;DHT22;10400;53.198;6.592;2023-09-18T08:20:30;18.90;99.90
20483;DHT22;10400;53.198;6.592;2023-09-18T08:22:55;18.90;99.90
20483;DHT22;10400;53.198;6.592;2023-09-18T08:25:22;18.90;99.90
20483;DHT22;10400;53.198;6.592;2023-09-18T08:27:47;18.90;99.90
20483;DHT22;10400;53.198;6.592;2023-09-18T08:30:14;18.90;99.90
20483;DHT22;10400;53.198;6.592;2023-09-18T08:32:41;18.90;99.90
20483;DHT22;10400;53.198;6.592;2023-09-18T08:35:08;18.90;99.90
20483;DHT22;10400;53.198;6.592;2023-09-18T08:37:34;18.90;99.90
20483;DHT22;10400;53.198;6.592;2023-09-18T08:39:59;18.90;99.90
20483;DHT22;10400;53.198;6.592;2023-09-18T08:42:35;18.90;99.90
20483;DHT22;10400;53.198;6.592;2023-09-18T08:45:02;18.90;99.90
20483;DHT22;10400;53.198;6.592;2023-09-18T08:47:33;18.90;99.90
20483;DHT22;10400;53.198;6.592;2023-09-18T08:50:00;18.90;99.90
20483;DHT22;10400;53.198;6.592;2023-09-18T08:52:27;19.00;99.90
20483;DHT22;10400;53.198;6.592;2023-09-18T08:54:54;19.00;99.90
20483;DHT22;10400;53.198;6.592;2023-09-18T08:57:22;19.00;99.90
20483;DHT22;10400;53.198;6.592;2023-09-18T08:59:49;19.10;99.90
20483;DHT22;10400;53.198;6.592;2023-09-18T09:02:16;19.10;99.90
20483;DHT22;10400;53.198;6.592;2023-09-18T09:04:42;19.20;99.90
20483;DHT22;10400;53.198;6.592;2023-09-18T09:07:07;19.20;99.90
20483;DHT22;10400;53.198;6.592;2023-09-18T09:09:34;19.20;99.90
20483;DHT22;10400;53.198;6.592;2023-09-18T09:12:00;19.30;99.90
20483;DHT22;10400;53.198;6.592;2023-09-18T09:14:26;19.30;99.90
20483;DHT22;10400;53.198;6.592;2023-09-18T09:16:55;19.30;99.90
20483;DHT22;10400;53.198;6.592;2023-09-18T09:19:33;19.20;99.90
20483;DHT22;10400;53.198;6.592;2023-09-18T09:22:02;19.20;99.90
20483;DHT22;10400;53.198;6.592;2023-09-18T09:24:42;19.30;99.90
20483;DHT22;10400;53.198;6.592;2023-09-18T09:27:09;19.30;99.90
20483;DHT22;10400;53.198;6.592;2023-09-18T09:29:36;19.30;99.90
20483;DHT22;10400;53.198;6.592;2023-09-18T09:32:15;19.30;99.90
20483;DHT22;10400;53.198;6.592;2023-09-18T09:34:42;19.40;99.90
20483;DHT22;10400;53.198;6.592;2023-09-18T09:37:09;19.40;99.90
20483;DHT22;10400;53.198;6.592;2023-09-18T09:39:52;19.40;99.90
20483;DHT22;10400;53.198;6.592;2023-09-18T09:42:19;19.60;99.90
20483;DHT22;10400;53.198;6.592;2023-09-18T09:45:04;19.70;99.90
20483;DHT22;10400;53.198;6.592;2023-09-18T09:47:34;19.80;99.90
20483;DHT22;10400;53.198;6.592;2023-09-18T09:50:12;19.80;99.90
20483;DHT22;10400;53.198;6.592;2023-09-18T09:52:52;19.80;99.90
20483;DHT22;10400;53.198;6.592;2023-09-18T09:55:22;19.80;99.90
20483;DHT22;10400;53.198;6.592;2023-09-18T09:57:50;19.80;99.90
20483;DHT22;10400;53.198;6.592;2023-09-18T10:00:16;19.80;99.90
20483;DHT22;10400;53.198;6.592;2023-09-18T10:03:04;19.90;99.90
20483;DHT22;10400;53.198;6.592;2023-09-18T10:05:35;19.90;99.90
20483;DHT22;10400;53.198;6.592;2023-09-18T10:08:09;19.90;99.90
20483;DHT22;10400;53.198;6.592;2023-09-18T10:10:50;20.00;99.90
20483;DHT22;10400;53.198;6.592;2023-09-18T10:13:41;20.10;99.90
20483;DHT22;10400;53.198;6.592;2023-09-18T10:16:09;20.30;99.90
20483;DHT22;10400;53.198;6.592;2023-09-18T10:18:59;20.40;99.90
20483;DHT22;10400;53.198;6.592;2023-09-18T10:21:38;20.50;99.90
20483;DHT22;10400;53.198;6.592;2023-09-18T10:26:50;20.60;99.90
20483;DHT22;10400;53.198;6.592;2023-09-18T10:29:18;20.60;99.90
20483;DHT22;10400;53.198;6.592;2023-09-18T10:31:45;20.70;99.90
20483;DHT22;10400;53.198;6.592;2023-09-18T10:34:13;20.80;99.90
20483;DHT22;10400;53.198;6.592;2023-09-18T10:36:41;20.90;99.90
20483;DHT22;10400;53.198;6.592;2023-09-18T10:39:09;21.10;99.90
20483;DHT22;10400;53.198;6.592;2023-09-18T10:41:38;21.20;99.90
20483;DHT22;10400;53.198;6.592;2023-09-18T10:44:07;21.10;99.90
20483;DHT22;10400;53.198;6.592;2023-09-18T10:46:34;21.20;99.90
20483;DHT22;10400;53.198;6.592;2023-09-18T10:49:00;21.30;99.90
20483;DHT22;10400;53.198;6.592;2023-09-18T10:51:29;21.20;99.90
20483;DHT22;10400;53.198;6.592;2023-09-18T10:53:56;21.20;99.90
20483;DHT22;10400;53.198;6.592;2023-09-18T10:56:23;21.20;99.90
20483;DHT22;10400;53.198;6.592;2023-09-18T10:58:59;21.30;99.90
20483;DHT22;10400;53.198;6.592;2023-09-18T11:01:27;21.40;99.90
20483;DHT22;10400;53.198;6.592;2023-09-18T11:04:01;21.40;99.90
20483;DHT22;10400;53.198;6.592;2023-09-18T11:06:30;21.40;99.90
20483;DHT22;10400;53.198;6.592;2023-09-18T11:09:00;21.40;99.90
20483;DHT22;10400;53.198;6.592;2023-09-18T11:11:30;21.40;99.90
20483;DHT22;10400;53.198;6.592;2023-09-18T11:13:59;21.50;99.90
20483;DHT22;10400;53.198;6.592;2023-09-18T11:21:32;21.80;99.90
20483;DHT22;10400;53.198;6.592;2023-09-18T11:24:00;21.70;99.90
20483;DHT22;10400;53.198;6.592;2023-09-18T11:26:31;21.60;99.90
20483;DHT22;10400;53.198;6.592;2023-09-18T11:29:08;21.60;99.90
20483;DHT22;10400;53.198;6.592;2023-09-18T11:34:29;21.70;99.90
20483;DHT22;10400;53.198;6.592;2023-09-18T11:37:01;21.90;99.90
20483;DHT22;10400;53.198;6.592;2023-09-18T11:39:37;22.20;99.90
20483;DHT22;10400;53.198;6.592;2023-09-18T11:42:23;22.30;99.90
20483;DHT22;10400;53.198;6.592;2023-09-18T11:44:52;22.40;99.90
20483;DHT22;10400;53.198;6.592;2023-09-18T11:47:19;22.60;99.90
20483;DHT22;10400;53.198;6.592;2023-09-18T11:49:58;22.50;99.90
20483;DHT22;10400;53.198;6.592;2023-09-18T11:52:28;22.40;99.90
20483;DHT22;10400;53.198;6.592;2023-09-18T11:54:59;22.20;99.90
20483;DHT22;10400;53.198;6.592;2023-09-18T11:57:25;22.20;99.90
20483;DHT22;10400;53.198;6.592;2023-09-18T11:59:52;22.10;99.90
20483;DHT22;10400;53.198;6.592;2023-09-18T12:02:28;22.00;99.90
20483;DHT22;10400;53.198;6.592;2023-09-18T12:04:56;21.90;99.90
20483;DHT22;10400;53.198;6.592;2023-09-18T12:07:22;22.00;99.90
20483;DHT22;10400;53.198;6.592;2023-09-18T12:09:48;22.30;99.90
20483;DHT22;10400;53.198;6.592;2023-09-18T12:12:15;22.50;99.90
20483;DHT22;10400;53.198;6.592;2023-09-18T12:14:41;22.70;99.90
20483;DHT22;10400;53.198;6.592;2023-09-18T12:17:08;22.80;99.90
20483;DHT22;10400;53.198;6.592;2023-09-18T12:19:34;22.70;99.90
20483;DHT22;10400;53.198;6.592;2023-09-18T12:22:01;22.90;99.90
20483;DHT22;10400;53.198;6.592;2023-09-18T12:24:27;22.90;99.90
20483;DHT22;10400;53.198;6.592;2023-09-18T12:26:54;22.80;99.90
20483;DHT22;10400;53.198;6.592;2023-09-18T12:29:20;22.70;99.90
20483;DHT22;10400;53.198;6.592;2023-09-18T12:31:46;22.90;99.90
20483;DHT22;10400;53.198;6.592;2023-09-18T12:34:18;22.90;99.90
20483;DHT22;10400;53.198;6.592;2023-09-18T12:36:47;22.90;99.90
20483;DHT22;10400;53.198;6.592;2023-09-18T12:39:14;22.70;99.90
20483;DHT22;10400;53.198;6.592;2023-09-18T12:41:46;22.60;99.90
20483;DHT22;10400;53.198;6.592;2023-09-18T12:44:12;22.60;99.90
20483;DHT22;10400;53.198;6.592;2023-09-18T12:46:40;22.60;99.90
20483;DHT22;10400;53.198;6.592;2023-09-18T12:49:19;22.50;99.90
20483;DHT22;10400;53.198;6.592;2023-09-18T12:51:58;22.60;99.90
20483;DHT22;10400;53.198;6.592;2023-09-18T12:54:56;22.80;99.90
20483;DHT22;10400;53.198;6.592;2023-09-18T12:57:25;22.80;99.90
20483;DHT22;10400;53.198;6.592;2023-09-18T12:59:51;22.90;99.90
20483;DHT22;10400;53.198;6.592;2023-09-18T13:02:18;23.00;99.90
20483;DHT22;10400;53.198;6.592;2023-09-18T13:04:54;23.00;99.90
20483;DHT22;10400;53.198;6.592;2023-09-18T13:07:21;23.00;99.90
20483;DHT22;10400;53.198;6.592;2023-09-18T13:10:03;23.10;99.90
20483;DHT22;10400;53.198;6.592;2023-09-18T13:12:47;22.90;99.90
20483;DHT22;10400;53.198;6.592;2023-09-18T13:15:13;22.60;99.90
20483;DHT22;10400;53.198;6.592;2023-09-18T13:17:45;22.50;99.90
20483;DHT22;10400;53.198;6.592;2023-09-18T13:20:21;22.30;99.90
20483;DHT22;10400;53.198;6.592;2023-09-18T13:22:51;22.40;99.90
20483;DHT22;10400;53.198;6.592;2023-09-18T13:27:48;22.40;99.90
20483;DHT22;10400;53.198;6.592;2023-09-18T13:30:14;22.30;99.90
20483;DHT22;10400;53.198;6.592;2023-09-18T13:32:43;22.30;99.90
20483;DHT22;10400;53.198;6.592;2023-09-18T13:35:10;22.10;99.90
20483;DHT22;10400;53.198;6.592;2023-09-18T13:37:38;22.20;99.90
20483;DHT22;10400;53.198;6.592;2023-09-18T13:40:06;22.30;99.90
20483;DHT22;10400;53.198;6.592;2023-09-18T13:42:33;22.40;99.90
20483;DHT22;10400;53.198;6.592;2023-09-18T13:44:59;22.50;99.90
20483;DHT22;10400;53.198;6.592;2023-09-18T13:47:29;22.70;99.90
20483;DHT22;10400;53.198;6.592;2023-09-18T13:49:55;22.90;99.90
20483;DHT22;10400;53.198;6.592;2023-09-18T13:52:28;22.80;90.60
20483;DHT22;10400;53.198;6.592;2023-09-18T13:54:55;22.60;60.30
20483;DHT22;10400;53.198;6.592;2023-09-18T13:57:21;22.60;70.90
20483;DHT22;10400;53.198;6.592;2023-09-18T13:59:48;22.60;72.40
20483;DHT22;10400;53.198;6.592;2023-09-18T14:02:15;22.70;75.40
20483;DHT22;10400;53.198;6.592;2023-09-18T14:04:41;22.90;40.20
20483;DHT22;10400;53.198;6.592;2023-09-18T14:07:08;23.00;34.10
20483;DHT22;10400;53.198;6.592;2023-09-18T14:09:35;22.90;30.50
20483;DHT22;10400;53.198;6.592;2023-09-18T14:12:01;22.70;32.10
20483;DHT22;10400;53.198;6.592;2023-09-18T14:14:28;22.80;17.70
20483;DHT22;10400;53.198;6.592;2023-09-18T14:16:54;23.00;19.80
20483;DHT22;10400;53.198;6.592;2023-09-18T14:19:22;23.10;11.00
20483;DHT22;10400;53.198;6.592;2023-09-18T14:21:51;23.10;3.90
20483;DHT22;10400;53.198;6.592;2023-09-18T14:24:17;22.90;1.00
20483;DHT22;10400;53.198;6.592;2023-09-18T14:26:47;22.80;1.00
20483;DHT22;10400;53.198;6.592;2023-09-18T14:29:14;22.90;1.00
20483;DHT22;10400;53.198;6.592;2023-09-18T14:31:40;22.90;1.00
20483;DHT22;10400;53.198;6.592;2023-09-18T14:34:06;23.00;1.00
20483;DHT22;10400;53.198;6.592;2023-09-18T14:36:32;23.10;1.00
20483;DHT22;10400;53.198;6.592;2023-09-18T14:39:02;23.10;1.00
20483;DHT22;10400;53.198;6.592;2023-09-18T14:41:28;22.90;1.00
20483;DHT22;10400;53.198;6.592;2023-09-18T14:43:54;22.90;1.00
20483;DHT22;10400;53.198;6.592;2023-09-18T14:46:22;22.90;1.00
20483;DHT22;10400;53.198;6.592;2023-09-18T14:48:48;22.90;1.00
20483;DHT22;10400;53.198;6.592;2023-09-18T14:51:14;22.90;1.00
20483;DHT22;10400;53.198;6.592;2023-09-18T14:53:39;22.70;1.00
20483;DHT22;10400;53.198;6.592;2023-09-18T14:56:05;22.60;1.00
20483;DHT22;10400;53.198;6.592;2023-09-18T14:58:31;22.70;1.00
20483;DHT22;10400;53.198;6.592;2023-09-18T15:00:59;22.70;1.00
20483;DHT22;10400;53.198;6.592;2023-09-18T15:03:25;22.80;1.00
20483;DHT22;10400;53.198;6.592;2023-09-18T15:05:51;22.90;1.00
20483;DHT22;10400;53.198;6.592;2023-09-18T15:08:18;22.90;1.00
20483;DHT22;10400;53.198;6.592;2023-09-18T15:10:45;22.90;1.00
20483;DHT22;10400;53.198;6.592;2023-09-18T15:13:11;22.90;1.00
20483;DHT22;10400;53.198;6.592;2023-09-18T15:15:39;22.90;1.00
20483;DHT22;10400;53.198;6.592;2023-09-18T15:18:05;22.90;1.00
20483;DHT22;10400;53.198;6.592;2023-09-18T15:20:31;22.90;1.00
20483;DHT22;10400;53.198;6.592;2023-09-18T15:22:56;22.90;1.00
20483;DHT22;10400;53.198;6.592;2023-09-18T15:25:22;22.80;1.00
20483;DHT22;10400;53.198;6.592;2023-09-18T15:27:48;22.90;1.00
20483;DHT22;10400;53.198;6.592;2023-09-18T15:30:14;22.90;1.00
20483;DHT22;10400;53.198;6.592;2023-09-18T15:32:50;22.90;1.00
20483;DHT22;10400;53.198;6.592;2023-09-18T15:35:17;22.90;1.00
20483;DHT22;10400;53.198;6.592;2023-09-18T15:37:43;22.80;1.00
20483;DHT22;10400;53.198;6.592;2023-09-18T15:40:09;22.70;1.00
20483;DHT22;10400;53.198;6.592;2023-09-18T15:42:36;22.70;1.00
20483;DHT22;10400;53.198;6.592;2023-09-18T15:45:06;22.70;1.00
20483;DHT22;10400;53.198;6.592;2023-09-18T15:47:33;22.60;1.00
20483;DHT22;10400;53.198;6.592;2023-09-18T15:49:59;22.60;1.00
20483;DHT22;10400;53.198;6.592;2023-09-18T15:52:25;22.60;1.00